This is the latest recevied weather packets stored in our database for station/object N1SU-13. If no packets are shown the sender has not sent any weather packets the latest 10 day(s).
| Time | Temp. | Humidity | Pressure | Rain* | Wind** | Luminosity | Snow |
|---|---|---|---|---|---|---|---|
| 1777961630 | 16.67° C | 70% | 1009.7 hPa | - | - | - | - |
| 1777960960 | 16.67° C | 68% | 1009.7 hPa | - | - | - | - |
| 1777960322 | 17.22° C | 67% | 1009.8 hPa | - | - | - | - |
| 1777959757 | 17.22° C | 67% | 1009.5 hPa | - | - | - | - |
| 1777959154 | 17.78° C | 66% | 1009.4 hPa | - | - | - | - |
| 1777958535 | 17.78° C | 65% | 1009.4 hPa | - | - | - | - |
| 1777957843 | 18.33° C | 64% | 1009.4 hPa | - | - | - | - |
| 1777957239 | 18.89° C | 63% | 1009.2 hPa | - | - | - | - |
| 1777956654 | 18.89° C | 62% | 1009 hPa | - | - | - | - |
| 1777955958 | 19.44° C | 61% | 1008.7 hPa | - | - | - | - |
| 1777955275 | 19.44° C | 60% | 1008.6 hPa | - | - | - | - |
| 1777954618 | 20° C | 59% | 1008.4 hPa | - | - | - | - |
| 1777954030 | 20.56° C | 58% | 1008.2 hPa | - | - | - | - |
| 1777953385 | 21.11° C | 56% | 1008 hPa | - | - | - | - |
| 1777952703 | 21.67° C | 55% | 1007.8 hPa | - | - | - | - |
| 1777952137 | 22.78° C | 53% | 1007.6 hPa | - | - | - | - |
| 1777951534 | 23.33° C | 50% | 1007.4 hPa | - | - | - | - |
| 1777950871 | 24.44° C | 47% | 1007.2 hPa | - | - | - | - |
| 1777950208 | 25.56° C | 43% | 1006.9 hPa | - | - | - | - |
| 1777949643 | 27.78° C | 38% | 1006.7 hPa | - | - | - | - |
| 1777949007 | 28.33° C | 36% | 1006.6 hPa | - | - | - | - |
| 1777948353 | 29.44° C | 33% | 1006.5 hPa | - | - | - | - |
| 1777947758 | 29.44° C | 31% | 1006.5 hPa | - | - | - | - |
| 1777947139 | 29.44° C | 31% | 1006.5 hPa | - | - | - | - |
| 1777946578 | 29.44° C | 31% | 1006.6 hPa | - | - | - | - |
* Rain since midnight (hover to see other rain measurements)
** Current wind speed in m/s (hover to see current wind gust speed)